WXM80 ListenWXM80 Stop

You find our weather info also at:

UK Metoffice

WeatherCloud

Weather Underground

Northeastern Weather Network

AWEKAS

Citizen Weather Observer Program (CWOP)

HAMweather, WeatherForYou, PWS Weather


Weather Underground History page Text

Daily Summary for August 7, 2017 Units:  Both    English   Metric
« Previous Day
Next Day »
Daily Weekly Monthly Yearly Custom
  High: Low: Average:
Temperature: 71.7 °F /  22.1 °C 63.9 °F /  17.7 °C 66.7 °F /  19.3 °C
Dew Point: 67.5 °F /  19.7 °C 57.0 °F /  13.9 °C 63.1 °F /  17.3 °C
Humidity: 97 % 76 % 88 %
Wind Speed: 3.9 mph /  6.3 km/h - 0.2 mph /  0.3 km/h
Wind Gust: 8.1 mph /  13 km/h - -
Wind:- - South
Pressure: 30.07 in /  1018.2 hPa 29.85 in /  1010.7 hPa -
Precipitation: 0.01 in /  0.25 mm    
Historical Graphs
 
 
Tabular Data for August 7, 2017
Time Temperature Dew Point Pressure Wind Wind Speed Wind Gust Humidity Rainfall Rate (Hourly)
00:03 65.0 °F /  18.3 °C 57.2 °F /  14 °C 30.06 in /  1017.8 hPa Calm   1.2 mph /  1.9 km/h 76 % 0.00 in /  0 mm
00:08 65.0 °F /  18.3 °C 57.2 °F /  14 °C 30.06 in /  1017.8 hPa SSW 0.1 mph /  0.2 km/h 1.2 mph /  1.9 km/h 76 % 0.00 in /  0 mm
00:13 64.9 °F /  18.3 °C 57.2 °F /  14 °C 30.06 in /  1017.8 hPa SSW 0.1 mph /  0.2 km/h 3.0 mph /  4.8 km/h 76 % 0.00 in /  0 mm
00:18 64.9 °F /  18.3 °C 57.2 °F /  14 °C 30.06 in /  1017.8 hPa SSW 0.1 mph /  0.2 km/h 1.2 mph /  1.9 km/h 76 % 0.00 in /  0 mm
00:23 64.9 °F /  18.3 °C 57.5 °F /  14.2 °C 30.06 in /  1017.8 hPa Calm     77 % 0.00 in /  0 mm
00:28 64.9 °F /  18.3 °C 57.9 °F /  14.4 °C 30.06 in /  1017.8 hPa Calm     78 % 0.00 in /  0 mm
00:29 64.9 °F /  18.3 °C 57.9 °F /  14.4 °C 30.06 in /  1017.8 hPa Calm     78 % 0.00 in /  0 mm
00:33 64.9 °F /  18.3 °C 57.9 °F /  14.4 °C 30.07 in /  1018.2 hPa Calm     78 % 0.00 in /  0 mm
00:39 64.8 °F /  18.2 °C 57.8 °F /  14.3 °C 30.07 in /  1018.2 hPa Calm     78 % 0.00 in /  0 mm
00:44 64.7 °F /  18.2 °C 57.7 °F /  14.3 °C 30.07 in /  1018.2 hPa Calm     78 % 0.00 in /  0 mm
00:49 64.7 °F /  18.2 °C 57.7 °F /  14.3 °C 30.07 in /  1018.2 hPa Calm     78 % 0.00 in /  0 mm
00:54 64.6 °F /  18.1 °C 57.6 °F /  14.2 °C 30.07 in /  1018.2 hPa Calm     78 % 0.00 in /  0 mm
00:59 64.5 °F /  18.1 °C 57.5 °F /  14.2 °C 30.07 in /  1018.2 hPa Calm     78 % 0.00 in /  0 mm
01:04 64.4 °F /  18 °C 57.4 °F /  14.1 °C 30.06 in /  1017.8 hPa Calm     78 % 0.00 in /  0 mm
01:09 64.2 °F /  17.9 °C 57.2 °F /  14 °C 30.06 in /  1017.8 hPa Calm     78 % 0.00 in /  0 mm
01:14 64.1 °F /  17.8 °C 57.1 °F /  13.9 °C 30.06 in /  1017.8 hPa Calm     78 % 0.00 in /  0 mm
01:19 64.0 °F /  17.8 °C 57.0 °F /  13.9 °C 30.06 in /  1017.8 hPa SW 1.0 mph /  1.6 km/h 3.5 mph /  5.6 km/h 78 % 0.00 in /  0 mm
01:24 64.0 °F /  17.8 °C 57.0 °F /  13.9 °C 30.06 in /  1017.8 hPa SW 0.2 mph /  0.3 km/h 1.2 mph /  1.9 km/h 78 % 0.00 in /  0 mm
01:29 63.9 °F /  17.7 °C 57.3 °F /  14.1 °C 30.06 in /  1017.8 hPa Calm   2.3 mph /  3.7 km/h 79 % 0.00 in /  0 mm
01:39 63.9 °F /  17.7 °C 57.3 °F /  14.1 °C 30.06 in /  1017.8 hPa WSW 1.0 mph /  1.6 km/h 3.5 mph /  5.6 km/h 79 % 0.00 in /  0 mm
01:44 63.9 °F /  17.7 °C 57.3 °F /  14.1 °C 30.06 in /  1017.8 hPa WSW 0.4 mph /  0.6 km/h 2.3 mph /  3.7 km/h 79 % 0.00 in /  0 mm
01:49 63.9 °F /  17.7 °C 57.3 °F /  14.1 °C 30.06 in /  1017.8 hPa WSW 0.7 mph /  1.1 km/h 2.3 mph /  3.7 km/h 79 % 0.00 in /  0 mm
02:04 64.0 °F /  17.8 °C 57.4 °F /  14.1 °C 30.06 in /  1017.8 hPa Calm   1.2 mph /  1.9 km/h 79 % 0.00 in /  0 mm
02:09 64.1 °F /  17.8 °C 57.5 °F /  14.2 °C 30.06 in /  1017.8 hPa West 0.3 mph /  0.5 km/h 3.5 mph /  5.6 km/h 79 % 0.00 in /  0 mm
02:14 64.1 °F /  17.8 °C 57.5 °F /  14.2 °C 30.06 in /  1017.8 hPa West 0.8 mph /  1.3 km/h 3.5 mph /  5.6 km/h 79 % 0.00 in /  0 mm
02:20 64.2 °F /  17.9 °C 57.5 °F /  14.2 °C 30.06 in /  1017.8 hPa Calm   2.3 mph /  3.7 km/h 79 % 0.00 in /  0 mm
02:25 64.3 °F /  17.9 °C 57.3 °F /  14.1 °C 30.06 in /  1017.8 hPa West 0.5 mph /  0.8 km/h 2.3 mph /  3.7 km/h 78 % 0.00 in /  0 mm
02:30 64.3 °F /  17.9 °C 57.6 °F /  14.2 °C 30.06 in /  1017.8 hPa West 0.1 mph /  0.2 km/h 1.2 mph /  1.9 km/h 79 % 0.00 in /  0 mm
02:35 64.4 °F /  18 °C 57.4 °F /  14.1 °C 30.06 in /  1017.8 hPa Calm     78 % 0.00 in /  0 mm
02:40 64.4 °F /  18 °C 57.4 °F /  14.1 °C 30.06 in /  1017.8 hPa Calm     78 % 0.00 in /  0 mm
02:45 64.4 °F /  18 °C 57.4 °F /  14.1 °C 30.06 in /  1017.8 hPa Calm     78 % 0.00 in /  0 mm
02:50 64.4 °F /  18 °C 57.4 °F /  14.1 °C 30.06 in /  1017.8 hPa West 0.7 mph /  1.1 km/h 2.3 mph /  3.7 km/h 78 % 0.00 in /  0 mm
02:55 64.4 °F /  18 °C 57.4 °F /  14.1 °C 30.05 in /  1017.5 hPa West 0.4 mph /  0.6 km/h 2.3 mph /  3.7 km/h 78 % 0.00 in /  0 mm
03:00 64.4 °F /  18 °C 57.7 °F /  14.3 °C 30.05 in /  1017.5 hPa West 0.5 mph /  0.8 km/h 2.0 mph /  3.2 km/h 79 % 0.00 in /  0 mm
03:05 64.5 °F /  18.1 °C 57.8 °F /  14.3 °C 30.05 in /  1017.5 hPa West 0.5 mph /  0.8 km/h 1.2 mph /  1.9 km/h 79 % 0.00 in /  0 mm
03:10 64.5 °F /  18.1 °C 57.8 °F /  14.3 °C 30.05 in /  1017.5 hPa West 1.6 mph /  2.6 km/h 3.5 mph /  5.6 km/h 79 % 0.00 in /  0 mm
03:15 64.6 °F /  18.1 °C 57.6 °F /  14.2 °C 30.05 in /  1017.5 hPa West 0.6 mph /  1 km/h 2.3 mph /  3.7 km/h 78 % 0.00 in /  0 mm
03:20 64.7 °F /  18.2 °C 57.7 °F /  14.3 °C 30.05 in /  1017.5 hPa West 1.0 mph /  1.6 km/h 2.3 mph /  3.7 km/h 78 % 0.00 in /  0 mm
03:25 64.7 °F /  18.2 °C 58.0 °F /  14.4 °C 30.05 in /  1017.5 hPa West 0.2 mph /  0.3 km/h 1.2 mph /  1.9 km/h 79 % 0.00 in /  0 mm
03:30 64.8 °F /  18.2 °C 58.1 °F /  14.5 °C 30.05 in /  1017.5 hPa West 0.1 mph /  0.2 km/h   79 % 0.00 in /  0 mm
03:35 64.9 °F /  18.3 °C 58.2 °F /  14.6 °C 30.05 in /  1017.5 hPa Calm     79 % 0.00 in /  0 mm
03:41 64.9 °F /  18.3 °C 58.3 °F /  14.6 °C 30.05 in /  1017.5 hPa Calm   1.0 mph /  1.6 km/h 79 % 0.00 in /  0 mm
03:46 65.0 °F /  18.3 °C 58.3 °F /  14.6 °C 30.05 in /  1017.5 hPa Calm   1.0 mph /  1.6 km/h 79 % 0.00 in /  0 mm
03:51 65.0 °F /  18.3 °C 58.3 °F /  14.6 °C 30.04 in /  1017.2 hPa Calm     79 % 0.00 in /  0 mm
03:56 65.1 °F /  18.4 °C 58.4 °F /  14.7 °C 30.04 in /  1017.2 hPa Calm     79 % 0.00 in /  0 mm
04:01 65.0 °F /  18.3 °C 58.3 °F /  14.6 °C 30.04 in /  1017.2 hPa Calm     79 % 0.00 in /  0 mm
04:06 65.1 °F /  18.4 °C 58.8 °F /  14.9 °C 30.04 in /  1017.2 hPa Calm     80 % 0.00 in /  0 mm
04:11 65.1 °F /  18.4 °C 59.1 °F /  15.1 °C 30.05 in /  1017.5 hPa Calm     81 % 0.00 in /  0 mm
04:16 65.1 °F /  18.4 °C 58.8 °F /  14.9 °C 30.04 in /  1017.2 hPa Calm     80 % 0.00 in /  0 mm
04:21 65.1 °F /  18.4 °C 58.8 °F /  14.9 °C 30.04 in /  1017.2 hPa Calm     80 % 0.00 in /  0 mm
04:26 65.1 °F /  18.4 °C 58.8 °F /  14.9 °C 30.04 in /  1017.2 hPa Calm     80 % 0.00 in /  0 mm
04:31 65.1 °F /  18.4 °C 59.1 °F /  15.1 °C 30.04 in /  1017.2 hPa Calm     81 % 0.00 in /  0 mm
04:33 65.1 °F /  18.4 °C 59.1 °F /  15.1 °C 30.04 in /  1017.2 hPa Calm     81 % 0.00 in /  0 mm
04:38 65.1 °F /  18.4 °C 59.5 °F /  15.3 °C 30.04 in /  1017.2 hPa Calm     82 % 0.00 in /  0 mm
04:43 65.1 °F /  18.4 °C 59.1 °F /  15.1 °C 30.04 in /  1017.2 hPa Calm     81 % 0.00 in /  0 mm
04:45 65.1 °F /  18.4 °C 59.1 °F /  15.1 °C 30.05 in /  1017.5 hPa Calm     81 % 0.00 in /  0 mm
04:50 65.1 °F /  18.4 °C 59.1 °F /  15.1 °C 30.04 in /  1017.2 hPa Calm     81 % 0.00 in /  0 mm
04:55 65.1 °F /  18.4 °C 59.1 °F /  15.1 °C 30.04 in /  1017.2 hPa Calm     81 % 0.00 in /  0 mm
05:00 65.0 °F /  18.3 °C 59.0 °F /  15 °C 30.04 in /  1017.2 hPa Calm     81 % 0.00 in /  0 mm
05:05 65.0 °F /  18.3 °C 59.0 °F /  15 °C 30.04 in /  1017.2 hPa West 1.2 mph /  1.9 km/h 3.5 mph /  5.6 km/h 81 % 0.00 in /  0 mm
05:10 64.9 °F /  18.3 °C 58.9 °F /  14.9 °C 30.05 in /  1017.5 hPa West 0.5 mph /  0.8 km/h 2.3 mph /  3.7 km/h 81 % 0.00 in /  0 mm
05:15 64.9 °F /  18.3 °C 58.9 °F /  14.9 °C 30.04 in /  1017.2 hPa Calm     81 % 0.00 in /  0 mm
05:20 64.9 °F /  18.3 °C 58.9 °F /  14.9 °C 30.05 in /  1017.5 hPa Calm     81 % 0.00 in /  0 mm
05:25 64.9 °F /  18.3 °C 58.9 °F /  14.9 °C 30.05 in /  1017.5 hPa Calm     81 % 0.00 in /  0 mm
05:30 64.9 °F /  18.3 °C 58.9 °F /  14.9 °C 30.05 in /  1017.5 hPa Calm     81 % 0.00 in /  0 mm
05:35 65.0 °F /  18.3 °C 59.0 °F /  15 °C 30.05 in /  1017.5 hPa Calm     81 % 0.00 in /  0 mm
05:40 65.0 °F /  18.3 °C 59.0 °F /  15 °C 30.05 in /  1017.5 hPa Calm     81 % 0.00 in /  0 mm
05:45 65.1 °F /  18.4 °C 59.1 °F /  15.1 °C 30.05 in /  1017.5 hPa Calm     81 % 0.00 in /  0 mm
05:50 65.1 °F /  18.4 °C 59.5 °F /  15.3 °C 30.05 in /  1017.5 hPa Calm     82 % 0.00 in /  0 mm
05:55 65.1 °F /  18.4 °C 59.5 °F /  15.3 °C 30.05 in /  1017.5 hPa Calm     82 % 0.00 in /  0 mm
06:00 65.2 °F /  18.4 °C 59.6 °F /  15.3 °C 30.05 in /  1017.5 hPa Calm     82 % 0.00 in /  0 mm
06:05 65.2 °F /  18.4 °C 59.6 °F /  15.3 °C 30.05 in /  1017.5 hPa Calm     82 % 0.00 in /  0 mm
06:10 65.2 °F /  18.4 °C 59.9 °F /  15.5 °C 30.05 in /  1017.5 hPa Calm     83 % 0.00 in /  0 mm
06:15 65.2 °F /  18.4 °C 59.9 °F /  15.5 °C 30.05 in /  1017.5 hPa Calm     83 % 0.00 in /  0 mm
06:20 65.3 °F /  18.5 °C 60.0 °F /  15.6 °C 30.05 in /  1017.5 hPa Calm     83 % 0.00 in /  0 mm
06:25 65.3 °F /  18.5 °C 60.0 °F /  15.6 °C 30.05 in /  1017.5 hPa Calm     83 % 0.00 in /  0 mm
06:31 65.3 °F /  18.5 °C 60.0 °F /  15.6 °C 30.05 in /  1017.5 hPa Calm     83 % 0.00 in /  0 mm
06:36 65.4 °F /  18.6 °C 60.4 °F /  15.8 °C 30.05 in /  1017.5 hPa Calm   1.0 mph /  1.6 km/h 84 % 0.00 in /  0 mm
06:41 65.4 °F /  18.6 °C 60.4 °F /  15.8 °C 30.05 in /  1017.5 hPa Calm     84 % 0.00 in /  0 mm
06:46 65.5 °F /  18.6 °C 60.5 °F /  15.8 °C 30.05 in /  1017.5 hPa Calm     84 % 0.00 in /  0 mm
06:51 65.5 °F /  18.6 °C 60.6 °F /  15.9 °C 30.05 in /  1017.5 hPa Calm     84 % 0.00 in /  0 mm
06:56 65.6 °F /  18.7 °C 60.6 °F /  15.9 °C 30.05 in /  1017.5 hPa Calm     84 % 0.00 in /  0 mm
07:01 65.7 °F /  18.7 °C 61.1 °F /  16.2 °C 30.04 in /  1017.2 hPa Calm   1.2 mph /  1.9 km/h 85 % 0.00 in /  0 mm
07:06 65.8 °F /  18.8 °C 61.2 °F /  16.2 °C 30.05 in /  1017.5 hPa Calm     85 % 0.00 in /  0 mm
07:11 65.8 °F /  18.8 °C 61.2 °F /  16.2 °C 30.05 in /  1017.5 hPa Calm     85 % 0.00 in /  0 mm
07:16 65.9 °F /  18.8 °C 61.6 °F /  16.4 °C 30.05 in /  1017.5 hPa Calm     86 % 0.00 in /  0 mm
07:21 66.0 °F /  18.9 °C 61.7 °F /  16.5 °C 30.06 in /  1017.8 hPa Calm     86 % 0.00 in /  0 mm
07:26 66.1 °F /  18.9 °C 61.5 °F /  16.4 °C 30.05 in /  1017.5 hPa West 0.3 mph /  0.5 km/h 2.3 mph /  3.7 km/h 85 % 0.00 in /  0 mm
07:31 66.2 °F /  19 °C 61.6 °F /  16.4 °C 30.06 in /  1017.8 hPa Calm   1.2 mph /  1.9 km/h 85 % 0.00 in /  0 mm
07:36 66.3 °F /  19.1 °C 62.0 °F /  16.7 °C 30.05 in /  1017.5 hPa Calm     86 % 0.00 in /  0 mm
07:41 66.4 °F /  19.1 °C 62.1 °F /  16.7 °C 30.06 in /  1017.8 hPa Calm     86 % 0.00 in /  0 mm
07:46 66.5 °F /  19.2 °C 62.2 °F /  16.8 °C 30.05 in /  1017.5 hPa Calm     86 % 0.00 in /  0 mm
07:52 66.7 °F /  19.3 °C 62.4 °F /  16.9 °C 30.05 in /  1017.5 hPa Calm     86 % 0.00 in /  0 mm
07:57 66.8 °F /  19.3 °C 62.5 °F /  16.9 °C 30.05 in /  1017.5 hPa Calm   1.2 mph /  1.9 km/h 86 % 0.00 in /  0 mm
08:02 66.9 °F /  19.4 °C 62.2 °F /  16.8 °C 30.05 in /  1017.5 hPa Calm     85 % 0.00 in /  0 mm
08:07 67.1 °F /  19.5 °C 62.8 °F /  17.1 °C 30.05 in /  1017.5 hPa Calm     86 % 0.00 in /  0 mm
08:12 67.2 °F /  19.6 °C 62.9 °F /  17.2 °C 30.05 in /  1017.5 hPa Calm     86 % 0.00 in /  0 mm
08:14 67.4 °F /  19.7 °C 63.1 °F /  17.3 °C 30.05 in /  1017.5 hPa Calm     86 % 0.00 in /  0 mm
08:19 67.4 °F /  19.7 °C 63.1 °F /  17.3 °C 30.05 in /  1017.5 hPa Calm     86 % 0.00 in /  0 mm
08:24 67.6 °F /  19.8 °C 63.3 °F /  17.4 °C 30.05 in /  1017.5 hPa Calm     86 % 0.00 in /  0 mm
08:29 67.7 °F /  19.8 °C 63.0 °F /  17.2 °C 30.05 in /  1017.5 hPa Calm     85 % 0.00 in /  0 mm
08:34 67.8 °F /  19.9 °C 63.1 °F /  17.3 °C 30.05 in /  1017.5 hPa Calm     85 % 0.00 in /  0 mm
08:39 67.9 °F /  19.9 °C 63.2 °F /  17.3 °C 30.04 in /  1017.2 hPa Calm     85 % 0.00 in /  0 mm
08:44 68.0 °F /  20 °C 63.3 °F /  17.4 °C 30.04 in /  1017.2 hPa Calm     85 % 0.00 in /  0 mm
08:49 68.1 °F /  20.1 °C 63.4 °F /  17.4 °C 30.04 in /  1017.2 hPa Calm     85 % 0.00 in /  0 mm
08:54 68.2 °F /  20.1 °C 63.5 °F /  17.5 °C 30.04 in /  1017.2 hPa Calm     85 % 0.00 in /  0 mm
08:59 68.3 °F /  20.2 °C 63.6 °F /  17.6 °C 30.04 in /  1017.2 hPa Calm   1.2 mph /  1.9 km/h 85 % 0.00 in /  0 mm
09:04 68.4 °F /  20.2 °C 63.7 °F /  17.6 °C 30.04 in /  1017.2 hPa Calm     85 % 0.00 in /  0 mm
09:10 68.5 °F /  20.3 °C 63.8 °F /  17.7 °C 30.05 in /  1017.5 hPa Calm     85 % 0.00 in /  0 mm
09:15 68.6 °F /  20.3 °C 63.9 °F /  17.7 °C 30.05 in /  1017.5 hPa Calm     85 % 0.00 in /  0 mm
09:20 68.6 °F /  20.3 °C 63.9 °F /  17.7 °C 30.05 in /  1017.5 hPa Calm     85 % 0.00 in /  0 mm
09:25 68.7 °F /  20.4 °C 64.0 °F /  17.8 °C 30.04 in /  1017.2 hPa Calm   1.2 mph /  1.9 km/h 85 % 0.00 in /  0 mm
09:30 68.8 °F /  20.4 °C 64.4 °F /  18 °C 30.04 in /  1017.2 hPa Calm     86 % 0.00 in /  0 mm
09:35 68.8 °F /  20.4 °C 64.4 °F /  18 °C 30.04 in /  1017.2 hPa Calm     86 % 0.00 in /  0 mm
09:40 68.9 °F /  20.5 °C 64.5 °F /  18.1 °C 30.04 in /  1017.2 hPa Calm     86 % 0.00 in /  0 mm
09:45 68.9 °F /  20.5 °C 64.5 °F /  18.1 °C 30.04 in /  1017.2 hPa Calm     86 % 0.00 in /  0 mm
09:50 68.9 °F /  20.5 °C 64.5 °F /  18.1 °C 30.04 in /  1017.2 hPa Calm     86 % 0.00 in /  0 mm
09:55 69.0 °F /  20.6 °C 64.6 °F /  18.1 °C 30.04 in /  1017.2 hPa Calm     86 % 0.00 in /  0 mm
10:00 69.0 °F /  20.6 °C 64.6 °F /  18.1 °C 30.04 in /  1017.2 hPa Calm     86 % 0.00 in /  0 mm
10:01 69.0 °F /  20.6 °C 64.6 °F /  18.1 °C 30.04 in /  1017.2 hPa Calm     86 % 0.00 in /  0 mm
10:06 69.0 °F /  20.6 °C 64.6 °F /  18.1 °C 30.04 in /  1017.2 hPa Calm     86 % 0.00 in /  0 mm
10:11 69.2 °F /  20.7 °C 65.2 °F /  18.4 °C 30.04 in /  1017.2 hPa Calm     87 % 0.00 in /  0 mm
10:16 69.3 °F /  20.7 °C 65.3 °F /  18.5 °C 30.03 in /  1016.8 hPa Calm     87 % 0.00 in /  0 mm
10:21 69.4 °F /  20.8 °C 65.7 °F /  18.7 °C 30.03 in /  1016.8 hPa Calm     88 % 0.00 in /  0 mm
10:26 69.5 °F /  20.8 °C 65.8 °F /  18.8 °C 30.03 in /  1016.8 hPa Calm     88 % 0.00 in /  0 mm
10:31 69.6 °F /  20.9 °C 65.6 °F /  18.7 °C 30.04 in /  1017.2 hPa Calm     87 % 0.00 in /  0 mm
10:37 69.8 °F /  21 °C 65.8 °F /  18.8 °C 30.03 in /  1016.8 hPa Calm     87 % 0.00 in /  0 mm
10:42 69.9 °F /  21.1 °C 65.9 °F /  18.8 °C 30.04 in /  1017.2 hPa Calm     87 % 0.00 in /  0 mm
10:47 70.1 °F /  21.2 °C 66.0 °F /  18.9 °C 30.03 in /  1016.8 hPa Calm     87 % 0.00 in /  0 mm
10:52 70.2 °F /  21.2 °C 66.1 °F /  18.9 °C 30.03 in /  1016.8 hPa Calm     87 % 0.00 in /  0 mm
10:57 70.4 °F /  21.3 °C 66.3 °F /  19.1 °C 30.03 in /  1016.8 hPa Calm     87 % 0.00 in /  0 mm
11:02 70.6 °F /  21.4 °C 66.5 °F /  19.2 °C 30.03 in /  1016.8 hPa Calm     87 % 0.00 in /  0 mm
11:07 70.8 °F /  21.6 °C 66.4 °F /  19.1 °C 30.03 in /  1016.8 hPa Calm     86 % 0.00 in /  0 mm
11:12 71.0 °F /  21.7 °C 66.3 °F /  19.1 °C 30.04 in /  1017.2 hPa Calm     85 % 0.00 in /  0 mm
11:17 71.2 °F /  21.8 °C 66.5 °F /  19.2 °C 30.03 in /  1016.8 hPa Calm     85 % 0.00 in /  0 mm
11:22 71.3 °F /  21.8 °C 66.2 °F /  19 °C 30.04 in /  1017.2 hPa Calm     84 % 0.00 in /  0 mm
11:27 71.5 °F /  21.9 °C 66.4 °F /  19.1 °C 30.04 in /  1017.2 hPa SW 0.5 mph /  0.8 km/h 2.3 mph /  3.7 km/h 84 % 0.00 in /  0 mm
11:32 71.5 °F /  21.9 °C 66.4 °F /  19.1 °C 30.05 in /  1017.5 hPa SW 0.1 mph /  0.2 km/h 2.3 mph /  3.7 km/h 84 % 0.00 in /  0 mm
11:37 71.6 °F /  22 °C 66.5 °F /  19.2 °C 30.05 in /  1017.5 hPa SW 1.2 mph /  1.9 km/h 3.5 mph /  5.6 km/h 84 % 0.00 in /  0 mm
11:42 71.7 °F /  22.1 °C 66.6 °F /  19.2 °C 30.05 in /  1017.5 hPa SSW 3.8 mph /  6.1 km/h 8.1 mph /  13 km/h 84 % 0.00 in /  0 mm
11:47 71.7 °F /  22.1 °C 66.6 °F /  19.2 °C 30.05 in /  1017.5 hPa WSW 1.6 mph /  2.6 km/h 3.5 mph /  5.6 km/h 84 % 0.00 in /  0 mm
11:52 71.6 °F /  22 °C 66.8 °F /  19.3 °C 30.05 in /  1017.5 hPa West 1.3 mph /  2.1 km/h 2.3 mph /  3.7 km/h 85 % 0.00 in /  0 mm
11:57 71.5 °F /  21.9 °C 67.1 °F /  19.5 °C 30.04 in /  1017.2 hPa WNW 1.2 mph /  1.9 km/h 3.5 mph /  5.6 km/h 86 % 0.00 in /  0 mm
12:02 71.4 °F /  21.9 °C 67.3 °F /  19.6 °C 30.04 in /  1017.2 hPa WNW 0.1 mph /  0.2 km/h 1.2 mph /  1.9 km/h 87 % 0.00 in /  0 mm
12:07 71.2 °F /  21.8 °C 67.5 °F /  19.7 °C 30.04 in /  1017.2 hPa Calm   1.2 mph /  1.9 km/h 88 % 0.00 in /  0 mm
12:12 71.1 °F /  21.7 °C 67.4 °F /  19.7 °C 30.04 in /  1017.2 hPa WNW 0.8 mph /  1.3 km/h 3.5 mph /  5.6 km/h 88 % 0.00 in /  0 mm
12:17 71.0 °F /  21.7 °C 67.3 °F /  19.6 °C 30.04 in /  1017.2 hPa WNW 0.7 mph /  1.1 km/h 2.3 mph /  3.7 km/h 88 % 0.00 in /  0 mm
12:22 70.9 °F /  21.6 °C 67.5 °F /  19.7 °C 30.04 in /  1017.2 hPa NW 0.6 mph /  1 km/h 2.3 mph /  3.7 km/h 89 % 0.00 in /  0 mm
12:27 70.7 °F /  21.5 °C 67.3 °F /  19.6 °C 30.04 in /  1017.2 hPa NNW 0.1 mph /  0.2 km/h 2.3 mph /  3.7 km/h 89 % 0.00 in /  0 mm
12:32 70.6 °F /  21.4 °C 67.2 °F /  19.6 °C 30.04 in /  1017.2 hPa NNW 0.1 mph /  0.2 km/h 1.2 mph /  1.9 km/h 89 % 0.00 in /  0 mm
12:37 70.5 °F /  21.4 °C 67.1 °F /  19.5 °C 30.04 in /  1017.2 hPa Calm   2.3 mph /  3.7 km/h 89 % 0.00 in /  0 mm
12:42 70.3 °F /  21.3 °C 66.9 °F /  19.4 °C 30.04 in /  1017.2 hPa Calm     89 % 0.00 in /  0 mm
12:47 70.1 °F /  21.2 °C 66.7 °F /  19.3 °C 30.04 in /  1017.2 hPa North 3.9 mph /  6.3 km/h 4.6 mph /  7.4 km/h 89 % 0.00 in /  0 mm
12:52 69.8 °F /  21 °C 66.4 °F /  19.1 °C 30.04 in /  1017.2 hPa North 2.4 mph /  3.9 km/h 5.8 mph /  9.3 km/h 89 % 0.01 in /  0.25 mm
12:57 69.5 °F /  20.8 °C 66.4 °F /  19.1 °C 30.03 in /  1016.8 hPa NNE 2.4 mph /  3.9 km/h 3.5 mph /  5.6 km/h 90 % 0.01 in /  0.25 mm
13:02 69.2 °F /  20.7 °C 66.1 °F /  18.9 °C 30.03 in /  1016.8 hPa NNE 1.7 mph /  2.7 km/h 3.5 mph /  5.6 km/h 90 % 0.01 in /  0.25 mm
13:07 69.0 °F /  20.6 °C 65.9 °F /  18.8 °C 30.03 in /  1016.8 hPa North 0.1 mph /  0.2 km/h 1.2 mph /  1.9 km/h 90 % 0.01 in /  0.25 mm
13:12 68.9 °F /  20.5 °C 65.8 °F /  18.8 °C 30.03 in /  1016.8 hPa North 0.4 mph /  0.6 km/h 1.2 mph /  1.9 km/h 90 % 0.01 in /  0.25 mm
13:17 68.8 °F /  20.4 °C 66.1 °F /  18.9 °C 30.03 in /  1016.8 hPa SSE 0.6 mph /  1 km/h 3.5 mph /  5.6 km/h 91 % 0.01 in /  0.25 mm
13:22 68.7 °F /  20.4 °C 66.0 °F /  18.9 °C 30.03 in /  1016.8 hPa Calm     91 % 0.01 in /  0.25 mm
13:27 68.6 °F /  20.3 °C 65.9 °F /  18.8 °C 30.03 in /  1016.8 hPa SE 0.4 mph /  0.6 km/h 3.5 mph /  5.6 km/h 91 % 0.01 in /  0.25 mm
13:33 68.5 °F /  20.3 °C 65.8 °F /  18.8 °C 30.03 in /  1016.8 hPa Calm     91 % 0.01 in /  0.25 mm
13:38 68.5 °F /  20.3 °C 66.1 °F /  18.9 °C 30.03 in /  1016.8 hPa Calm     92 % 0.01 in /  0.25 mm
13:43 68.5 °F /  20.3 °C 66.4 °F /  19.1 °C 30.03 in /  1016.8 hPa Calm     93 % 0.01 in /  0.25 mm
13:48 68.4 °F /  20.2 °C 66.3 °F /  19.1 °C 30.02 in /  1016.5 hPa Calm   2.3 mph /  3.7 km/h 93 % 0.01 in /  0.25 mm
13:53 68.3 °F /  20.2 °C 65.9 °F /  18.8 °C 30.02 in /  1016.5 hPa Calm     92 % 0.00 in /  0 mm
13:58 68.3 °F /  20.2 °C 66.2 °F /  19 °C 30.02 in /  1016.5 hPa ENE 0.4 mph /  0.6 km/h 2.3 mph /  3.7 km/h 93 % 0.00 in /  0 mm
14:03 68.3 °F /  20.2 °C 66.2 °F /  19 °C 30.02 in /  1016.5 hPa NE 0.7 mph /  1.1 km/h 1.2 mph /  1.9 km/h 93 % 0.00 in /  0 mm
14:08 68.2 °F /  20.1 °C 66.1 °F /  18.9 °C 30.02 in /  1016.5 hPa Calm     93 % 0.00 in /  0 mm
14:13 68.1 °F /  20.1 °C 66.0 °F /  18.9 °C 30.02 in /  1016.5 hPa Calm     93 % 0.00 in /  0 mm
14:18 68.1 °F /  20.1 °C 66.0 °F /  18.9 °C 30.01 in /  1016.1 hPa Calm     93 % 0.00 in /  0 mm
14:23 68.0 °F /  20 °C 65.9 °F /  18.8 °C 30.01 in /  1016.1 hPa NE 0.2 mph /  0.3 km/h 1.0 mph /  1.6 km/h 93 % 0.00 in /  0 mm
14:28 68.0 °F /  20 °C 65.9 °F /  18.8 °C 30.01 in /  1016.1 hPa NE 1.2 mph /  1.9 km/h 3.5 mph /  5.6 km/h 93 % 0.00 in /  0 mm
14:33 67.9 °F /  19.9 °C 65.8 °F /  18.8 °C 30.00 in /  1015.8 hPa Calm   3.5 mph /  5.6 km/h 93 % 0.00 in /  0 mm
14:38 67.9 °F /  19.9 °C 65.8 °F /  18.8 °C 30.00 in /  1015.8 hPa ENE 0.2 mph /  0.3 km/h 1.2 mph /  1.9 km/h 93 % 0.00 in /  0 mm
14:43 67.8 °F /  19.9 °C 66.0 °F /  18.9 °C 30.00 in /  1015.8 hPa Calm     94 % 0.00 in /  0 mm
14:48 67.9 °F /  19.9 °C 66.1 °F /  18.9 °C 30.00 in /  1015.8 hPa Calm     94 % 0.00 in /  0 mm
14:53 67.9 °F /  19.9 °C 66.1 °F /  18.9 °C 30.00 in /  1015.8 hPa Calm     94 % 0.00 in /  0 mm
14:59 67.9 °F /  19.9 °C 66.1 °F /  18.9 °C 30.00 in /  1015.8 hPa Calm     94 % 0.00 in /  0 mm
15:04 67.9 °F /  19.9 °C 66.1 °F /  18.9 °C 30.00 in /  1015.8 hPa Calm     94 % 0.00 in /  0 mm
15:09 67.9 °F /  19.9 °C 66.1 °F /  18.9 °C 30.00 in /  1015.8 hPa Calm     94 % 0.00 in /  0 mm
15:14 67.9 °F /  19.9 °C 66.1 °F /  18.9 °C 30.00 in /  1015.8 hPa Calm     94 % 0.00 in /  0 mm
15:19 68.0 °F /  20 °C 66.5 °F /  19.2 °C 29.99 in /  1015.5 hPa Calm     95 % 0.00 in /  0 mm
15:24 68.1 °F /  20.1 °C 66.6 °F /  19.2 °C 29.99 in /  1015.5 hPa Calm   1.0 mph /  1.6 km/h 95 % 0.00 in /  0 mm
15:29 68.0 °F /  20 °C 66.5 °F /  19.2 °C 29.99 in /  1015.5 hPa Calm     95 % 0.00 in /  0 mm
15:34 67.9 °F /  19.9 °C 66.4 °F /  19.1 °C 30.00 in /  1015.8 hPa ENE 0.1 mph /  0.2 km/h 1.2 mph /  1.9 km/h 95 % 0.00 in /  0 mm
15:39 67.9 °F /  19.9 °C 66.4 °F /  19.1 °C 30.00 in /  1015.8 hPa Calm     95 % 0.00 in /  0 mm
15:44 67.9 °F /  19.9 °C 66.4 °F /  19.1 °C 29.99 in /  1015.5 hPa Calm     95 % 0.00 in /  0 mm
15:49 67.8 °F /  19.9 °C 66.3 °F /  19.1 °C 29.99 in /  1015.5 hPa Calm     95 % 0.00 in /  0 mm
15:54 67.8 °F /  19.9 °C 66.3 °F /  19.1 °C 29.99 in /  1015.5 hPa Calm     95 % 0.00 in /  0 mm
15:59 67.8 °F /  19.9 °C 66.3 °F /  19.1 °C 29.99 in /  1015.5 hPa ENE 0.2 mph /  0.3 km/h 1.2 mph /  1.9 km/h 95 % 0.00 in /  0 mm
16:04 67.8 °F /  19.9 °C 66.3 °F /  19.1 °C 29.99 in /  1015.5 hPa Calm     95 % 0.00 in /  0 mm
16:09 67.8 °F /  19.9 °C 66.3 °F /  19.1 °C 29.98 in /  1015.1 hPa Calm     95 % 0.00 in /  0 mm
16:14 67.8 °F /  19.9 °C 66.3 °F /  19.1 °C 29.98 in /  1015.1 hPa Calm     95 % 0.00 in /  0 mm
16:19 67.8 °F /  19.9 °C 66.3 °F /  19.1 °C 29.98 in /  1015.1 hPa Calm   1.2 mph /  1.9 km/h 95 % 0.00 in /  0 mm
16:24 67.9 °F /  19.9 °C 66.4 °F /  19.1 °C 29.98 in /  1015.1 hPa Calm     95 % 0.00 in /  0 mm
16:29 67.8 °F /  19.9 °C 66.3 °F /  19.1 °C 29.98 in /  1015.1 hPa SE 0.4 mph /  0.6 km/h 4.0 mph /  6.4 km/h 95 % 0.00 in /  0 mm
16:34 67.7 °F /  19.8 °C 66.2 °F /  19 °C 29.97 in /  1014.8 hPa Calm     95 % 0.00 in /  0 mm
16:39 67.6 °F /  19.8 °C 66.1 °F /  18.9 °C 29.97 in /  1014.8 hPa SE 0.6 mph /  1 km/h 3.0 mph /  4.8 km/h 95 % 0.00 in /  0 mm
16:44 67.6 °F /  19.8 °C 66.1 °F /  18.9 °C 29.97 in /  1014.8 hPa SE 0.6 mph /  1 km/h 2.3 mph /  3.7 km/h 95 % 0.00 in /  0 mm
16:49 67.5 °F /  19.7 °C 66.0 °F /  18.9 °C 29.96 in /  1014.4 hPa SE 0.1 mph /  0.2 km/h 1.2 mph /  1.9 km/h 95 % 0.00 in /  0 mm
16:54 67.4 °F /  19.7 °C 65.9 °F /  18.8 °C 29.96 in /  1014.4 hPa SE 0.4 mph /  0.6 km/h 3.5 mph /  5.6 km/h 95 % 0.00 in /  0 mm
16:59 67.3 °F /  19.6 °C 65.8 °F /  18.8 °C 29.95 in /  1014.1 hPa Calm   1.2 mph /  1.9 km/h 95 % 0.00 in /  0 mm
17:04 67.2 °F /  19.6 °C 65.4 °F /  18.6 °C 29.95 in /  1014.1 hPa Calm   2.3 mph /  3.7 km/h 94 % 0.00 in /  0 mm
17:09 67.2 °F /  19.6 °C 65.7 °F /  18.7 °C 29.94 in /  1013.8 hPa Calm     95 % 0.00 in /  0 mm
17:14 67.1 °F /  19.5 °C 65.6 °F /  18.7 °C 29.94 in /  1013.8 hPa Calm     95 % 0.00 in /  0 mm
17:19 67.1 °F /  19.5 °C 65.6 °F /  18.7 °C 29.94 in /  1013.8 hPa Calm     95 % 0.00 in /  0 mm
17:24 67.0 °F /  19.4 °C 65.5 °F /  18.6 °C 29.94 in /  1013.8 hPa Calm     95 % 0.00 in /  0 mm
17:29 67.0 °F /  19.4 °C 65.5 °F /  18.6 °C 29.93 in /  1013.4 hPa Calm     95 % 0.00 in /  0 mm
17:34 67.0 °F /  19.4 °C 65.5 °F /  18.6 °C 29.93 in /  1013.4 hPa Calm   1.2 mph /  1.9 km/h 95 % 0.00 in /  0 mm
17:39 67.0 °F /  19.4 °C 65.5 °F /  18.6 °C 29.93 in /  1013.4 hPa Calm     95 % 0.00 in /  0 mm
17:44 67.0 °F /  19.4 °C 65.5 °F /  18.6 °C 29.93 in /  1013.4 hPa Calm     95 % 0.00 in /  0 mm
17:49 67.1 °F /  19.5 °C 65.6 °F /  18.7 °C 29.93 in /  1013.4 hPa Calm     95 % 0.00 in /  0 mm
17:54 67.0 °F /  19.4 °C 65.5 °F /  18.6 °C 29.92 in /  1013.1 hPa Calm     95 % 0.00 in /  0 mm
17:59 67.0 °F /  19.4 °C 65.5 °F /  18.6 °C 29.92 in /  1013.1 hPa SE 0.3 mph /  0.5 km/h 2.3 mph /  3.7 km/h 95 % 0.00 in /  0 mm
18:04 66.8 °F /  19.3 °C 65.3 °F /  18.5 °C 29.92 in /  1013.1 hPa SE 0.3 mph /  0.5 km/h 1.2 mph /  1.9 km/h 95 % 0.00 in /  0 mm
18:10 66.8 °F /  19.3 °C 65.3 °F /  18.5 °C 29.91 in /  1012.8 hPa SE 0.1 mph /  0.2 km/h 1.2 mph /  1.9 km/h 95 % 0.00 in /  0 mm
18:15 66.7 °F /  19.3 °C 65.2 °F /  18.4 °C 29.91 in /  1012.8 hPa Calm   1.2 mph /  1.9 km/h 95 % 0.00 in /  0 mm
18:20 66.7 °F /  19.3 °C 65.2 °F /  18.4 °C 29.91 in /  1012.8 hPa Calm     95 % 0.00 in /  0 mm
18:25 66.7 °F /  19.3 °C 65.2 °F /  18.4 °C 29.91 in /  1012.8 hPa Calm     95 % 0.00 in /  0 mm
18:30 66.7 °F /  19.3 °C 65.2 °F /  18.4 °C 29.91 in /  1012.8 hPa SE 0.4 mph /  0.6 km/h 2.3 mph /  3.7 km/h 95 % 0.00 in /  0 mm
18:35 66.7 °F /  19.3 °C 65.2 °F /  18.4 °C 29.92 in /  1013.1 hPa Calm     95 % 0.00 in /  0 mm
18:40 66.6 °F /  19.2 °C 65.1 °F /  18.4 °C 29.92 in /  1013.1 hPa Calm     95 % 0.00 in /  0 mm
18:45 66.7 °F /  19.3 °C 65.2 °F /  18.4 °C 29.93 in /  1013.4 hPa SE 0.2 mph /  0.3 km/h 1.2 mph /  1.9 km/h 95 % 0.00 in /  0 mm
18:50 66.7 °F /  19.3 °C 65.2 °F /  18.4 °C 29.92 in /  1013.1 hPa Calm   1.0 mph /  1.6 km/h 95 % 0.00 in /  0 mm
18:55 66.6 °F /  19.2 °C 65.1 °F /  18.4 °C 29.92 in /  1013.1 hPa SE 0.1 mph /  0.2 km/h 1.2 mph /  1.9 km/h 95 % 0.00 in /  0 mm
19:00 66.7 °F /  19.3 °C 65.2 °F /  18.4 °C 29.92 in /  1013.1 hPa SE 0.2 mph /  0.3 km/h 2.3 mph /  3.7 km/h 95 % 0.00 in /  0 mm
19:05 66.7 °F /  19.3 °C 65.2 °F /  18.4 °C 29.93 in /  1013.4 hPa Calm     95 % 0.00 in /  0 mm
19:10 66.6 °F /  19.2 °C 65.1 °F /  18.4 °C 29.93 in /  1013.4 hPa Calm     95 % 0.00 in /  0 mm
19:15 66.6 °F /  19.2 °C 65.1 °F /  18.4 °C 29.93 in /  1013.4 hPa Calm     95 % 0.00 in /  0 mm
19:20 66.6 °F /  19.2 °C 65.1 °F /  18.4 °C 29.93 in /  1013.4 hPa Calm     95 % 0.00 in /  0 mm
19:25 66.5 °F /  19.2 °C 65.0 °F /  18.3 °C 29.92 in /  1013.1 hPa Calm     95 % 0.00 in /  0 mm
19:30 66.4 °F /  19.1 °C 64.9 °F /  18.3 °C 29.92 in /  1013.1 hPa Calm     95 % 0.00 in /  0 mm
19:33 66.4 °F /  19.1 °C 64.9 °F /  18.3 °C 29.92 in /  1013.1 hPa Calm     95 % 0.00 in /  0 mm
19:38 66.3 °F /  19.1 °C 64.8 °F /  18.2 °C 29.91 in /  1012.8 hPa SE 0.1 mph /  0.2 km/h 1.2 mph /  1.9 km/h 95 % 0.00 in /  0 mm
19:43 66.1 °F /  18.9 °C 64.6 °F /  18.1 °C 29.91 in /  1012.8 hPa SE 1.7 mph /  2.7 km/h 3.5 mph /  5.6 km/h 95 % 0.00 in /  0 mm
19:48 66.0 °F /  18.9 °C 64.5 °F /  18.1 °C 29.91 in /  1012.8 hPa Calm     95 % 0.00 in /  0 mm
19:53 65.9 °F /  18.8 °C 64.4 °F /  18 °C 29.91 in /  1012.8 hPa Calm     95 % 0.00 in /  0 mm
19:58 65.9 °F /  18.8 °C 64.4 °F /  18 °C 29.90 in /  1012.4 hPa Calm     95 % 0.00 in /  0 mm
20:03 65.8 °F /  18.8 °C 64.3 °F /  17.9 °C 29.90 in /  1012.4 hPa Calm     95 % 0.00 in /  0 mm
20:08 65.7 °F /  18.7 °C 64.2 °F /  17.9 °C 29.90 in /  1012.4 hPa Calm     95 % 0.00 in /  0 mm
20:14 65.6 °F /  18.7 °C 64.1 °F /  17.8 °C 29.90 in /  1012.4 hPa Calm     95 % 0.00 in /  0 mm
20:19 65.5 °F /  18.6 °C 64.0 °F /  17.8 °C 29.90 in /  1012.4 hPa Calm     95 % 0.00 in /  0 mm
20:24 65.4 °F /  18.6 °C 63.9 °F /  17.7 °C 29.90 in /  1012.4 hPa Calm   1.2 mph /  1.9 km/h 95 % 0.00 in /  0 mm
20:29 65.3 °F /  18.5 °C 63.8 °F /  17.7 °C 29.89 in /  1012.1 hPa Calm     95 % 0.00 in /  0 mm
20:34 65.2 °F /  18.4 °C 63.7 °F /  17.6 °C 29.89 in /  1012.1 hPa SE 0.3 mph /  0.5 km/h 2.0 mph /  3.2 km/h 95 % 0.00 in /  0 mm
20:36 65.1 °F /  18.4 °C 63.6 °F /  17.6 °C 29.89 in /  1012.1 hPa SE 0.3 mph /  0.5 km/h 2.0 mph /  3.2 km/h 95 % 0.00 in /  0 mm
20:41 65.0 °F /  18.3 °C 63.5 °F /  17.5 °C 29.89 in /  1012.1 hPa Calm   1.2 mph /  1.9 km/h 95 % 0.00 in /  0 mm
20:46 64.9 °F /  18.3 °C 63.4 °F /  17.4 °C 29.88 in /  1011.7 hPa Calm   2.3 mph /  3.7 km/h 95 % 0.00 in /  0 mm
20:51 64.9 °F /  18.3 °C 63.4 °F /  17.4 °C 29.88 in /  1011.7 hPa Calm   2.3 mph /  3.7 km/h 95 % 0.00 in /  0 mm
20:56 64.8 °F /  18.2 °C 63.3 °F /  17.4 °C 29.88 in /  1011.7 hPa Calm   1.2 mph /  1.9 km/h 95 % 0.00 in /  0 mm
21:01 64.8 °F /  18.2 °C 63.3 °F /  17.4 °C 29.88 in /  1011.7 hPa Calm     95 % 0.00 in /  0 mm
21:06 64.8 °F /  18.2 °C 63.3 °F /  17.4 °C 29.88 in /  1011.7 hPa Calm     95 % 0.00 in /  0 mm
21:11 64.7 °F /  18.2 °C 63.2 °F /  17.3 °C 29.88 in /  1011.7 hPa Calm     95 % 0.00 in /  0 mm
21:16 64.7 °F /  18.2 °C 63.2 °F /  17.3 °C 29.88 in /  1011.7 hPa Calm   1.2 mph /  1.9 km/h 95 % 0.00 in /  0 mm
21:21 64.7 °F /  18.2 °C 63.2 °F /  17.3 °C 29.88 in /  1011.7 hPa SE 0.1 mph /  0.2 km/h 1.0 mph /  1.6 km/h 95 % 0.00 in /  0 mm
21:26 64.7 °F /  18.2 °C 63.2 °F /  17.3 °C 29.88 in /  1011.7 hPa Calm     95 % 0.00 in /  0 mm
21:31 64.6 °F /  18.1 °C 63.4 °F /  17.4 °C 29.88 in /  1011.7 hPa Calm     96 % 0.00 in /  0 mm
21:36 64.6 °F /  18.1 °C 63.4 °F /  17.4 °C 29.88 in /  1011.7 hPa Calm   1.2 mph /  1.9 km/h 96 % 0.00 in /  0 mm
21:41 64.7 °F /  18.2 °C 63.5 °F /  17.5 °C 29.88 in /  1011.7 hPa Calm   1.2 mph /  1.9 km/h 96 % 0.00 in /  0 mm
21:46 64.7 °F /  18.2 °C 63.5 °F /  17.5 °C 29.88 in /  1011.7 hPa Calm     96 % 0.00 in /  0 mm
21:52 64.7 °F /  18.2 °C 63.5 °F /  17.5 °C 29.88 in /  1011.7 hPa Calm     96 % 0.00 in /  0 mm
21:57 64.7 °F /  18.2 °C 63.5 °F /  17.5 °C 29.88 in /  1011.7 hPa Calm     96 % 0.00 in /  0 mm
22:02 64.8 °F /  18.2 °C 63.6 °F /  17.6 °C 29.88 in /  1011.7 hPa Calm     96 % 0.00 in /  0 mm
22:07 64.9 °F /  18.3 °C 63.7 °F /  17.6 °C 29.87 in /  1011.4 hPa Calm     96 % 0.00 in /  0 mm
22:12 64.9 °F /  18.3 °C 63.7 °F /  17.6 °C 29.87 in /  1011.4 hPa Calm   1.2 mph /  1.9 km/h 96 % 0.00 in /  0 mm
22:17 65.0 °F /  18.3 °C 63.8 °F /  17.7 °C 29.87 in /  1011.4 hPa Calm     96 % 0.00 in /  0 mm
22:22 65.1 °F /  18.4 °C 63.9 °F /  17.7 °C 29.87 in /  1011.4 hPa Calm     96 % 0.00 in /  0 mm
22:27 65.1 °F /  18.4 °C 64.2 °F /  17.9 °C 29.87 in /  1011.4 hPa Calm   1.2 mph /  1.9 km/h 97 % 0.00 in /  0 mm
22:32 65.2 °F /  18.4 °C 64.3 °F /  17.9 °C 29.87 in /  1011.4 hPa SE 0.5 mph /  0.8 km/h 1.2 mph /  1.9 km/h 97 % 0.00 in /  0 mm
22:37 65.3 °F /  18.5 °C 64.4 °F /  18 °C 29.87 in /  1011.4 hPa Calm   1.2 mph /  1.9 km/h 97 % 0.00 in /  0 mm
22:42 65.4 °F /  18.6 °C 64.5 °F /  18.1 °C 29.87 in /  1011.4 hPa NE 1.2 mph /  1.9 km/h 1.2 mph /  1.9 km/h 97 % 0.00 in /  0 mm
22:47 65.4 °F /  18.6 °C 64.5 °F /  18.1 °C 29.88 in /  1011.7 hPa NE 0.1 mph /  0.2 km/h 1.0 mph /  1.6 km/h 97 % 0.00 in /  0 mm
22:52 65.5 °F /  18.6 °C 64.6 °F /  18.1 °C 29.88 in /  1011.7 hPa NE 0.8 mph /  1.3 km/h 1.2 mph /  1.9 km/h 97 % 0.00 in /  0 mm
22:57 65.5 °F /  18.6 °C 64.6 °F /  18.1 °C 29.87 in /  1011.4 hPa NE 0.2 mph /  0.3 km/h 2.3 mph /  3.7 km/h 97 % 0.00 in /  0 mm
23:03 65.6 °F /  18.7 °C 64.7 °F /  18.2 °C 29.87 in /  1011.4 hPa Calm   1.2 mph /  1.9 km/h 97 % 0.00 in /  0 mm
23:08 65.6 °F /  18.7 °C 64.7 °F /  18.2 °C 29.87 in /  1011.4 hPa Calm     97 % 0.00 in /  0 mm
23:14 65.6 °F /  18.7 °C 64.7 °F /  18.2 °C 29.87 in /  1011.4 hPa Calm     97 % 0.00 in /  0 mm
23:19 65.6 °F /  18.7 °C 64.7 °F /  18.2 °C 29.87 in /  1011.4 hPa ENE 0.1 mph /  0.2 km/h 2.3 mph /  3.7 km/h 97 % 0.00 in /  0 mm
23:22 65.6 °F /  18.7 °C 64.7 °F /  18.2 °C 29.87 in /  1011.4 hPa ENE 0.5 mph /  0.8 km/h 2.3 mph /  3.7 km/h 97 % 0.00 in /  0 mm
23:24 65.6 °F /  18.7 °C 64.7 °F /  18.2 °C 29.86 in /  1011.1 hPa Calm   1.2 mph /  1.9 km/h 97 % 0.00 in /  0 mm
23:27 65.7 °F /  18.7 °C 64.8 °F /  18.2 °C 29.87 in /  1011.4 hPa Calm   1.2 mph /  1.9 km/h 97 % 0.00 in /  0 mm
23:28 65.7 °F /  18.7 °C 64.8 °F /  18.2 °C 29.87 in /  1011.4 hPa Calm     97 % 0.00 in /  0 mm
23:32 65.7 °F /  18.7 °C 64.8 °F /  18.2 °C 29.86 in /  1011.1 hPa Calm     97 % 0.00 in /  0 mm
23:38 65.7 °F /  18.7 °C 64.8 °F /  18.2 °C 29.86 in /  1011.1 hPa Calm   1.2 mph /  1.9 km/h 97 % 0.00 in /  0 mm
23:43 65.7 °F /  18.7 °C 64.8 °F /  18.2 °C 29.86 in /  1011.1 hPa Calm     97 % 0.00 in /  0 mm
23:48 65.7 °F /  18.7 °C 64.8 °F /  18.2 °C 29.86 in /  1011.1 hPa Calm     97 % 0.00 in /  0 mm
23:53 65.8 °F /  18.8 °C 64.9 °F /  18.3 °C 29.86 in /  1011.1 hPa Calm     97 % 0.00 in /  0 mm
23:58 65.8 °F /  18.8 °C 64.9 °F /  18.3 °C 29.85 in /  1010.7 hPa Calm     97 % 0.00 in /  0 mm
Crab Meadow Weather
Compliments of Weather Underground - 3 mb

Script developed by  Jim McMurry - jmcmurry@mwt.net Adapted for the template by  Wim van der Kuil - Leuven-Template.eu

Recycling: Recycling one aluminum can saves enough energy to run a TV for three hours -- or the equivalent of a half a gallon of gasoline.